Air Quality Table

TIMESTAMP NO2 O3 PM2.5 TEMP HUM AIRPRES WS WD NO
2021-07-30 23:00 8.78 ug/m3 72.26 ug/m3 12.28 ug/m3 29.31 C 39.08 % 999.74 mbar 0.71 m/s 265 Deg 0.07 ug/m3
2021-07-30 22:00 8.22 ug/m3 72.77 ug/m3 12.92 ug/m3 29.46 C 38.44 % 999.59 mbar 0.65 m/s 282.83 Deg 0.12 ug/m3
2021-07-30 21:00 9.86 ug/m3 69.02 ug/m3 13.64 ug/m3 29.61 C 38.91 % 999.60 mbar 0.71 m/s 214.42 Deg -0.04 ug/m3
2021-07-30 20:00 8.31 ug/m3 72.57 ug/m3 13.66 ug/m3 30.7 C 33.84 % 999.25 mbar 1.19 m/s 251.68 Deg 0.05 ug/m3
2021-07-30 19:00 5.49 ug/m3 73.66 ug/m3 12.28 ug/m3 32.01 C 28.41 % 999.11 mbar 1.57 m/s 286.61 Deg 0.19 ug/m3
2021-07-30 18:00 3.29 ug/m3 74.74 ug/m3 14.19 ug/m3 33 C 29.48 % 999.15 mbar 1.71 m/s 301.86 Deg 0.33 ug/m3
2021-07-30 17:00 4.57 ug/m3 73.37 ug/m3 14.79 ug/m3 34.26 C 24.78 % 999.42 mbar 1.79 m/s 296.63 Deg 0.69 ug/m3
2021-07-30 16:00 4.72 ug/m3 75.16 ug/m3 15.74 ug/m3 34.96 C 23 % 999.85 mbar 2.16 m/s 296.07 Deg 0.93 ug/m3
2021-07-30 15:00 3.41 ug/m3 81.01 ug/m3 17.36 ug/m3 35.16 C 22.4 % 1,000.25 mbar 2.15 m/s 290.98 Deg 0.43 ug/m3
2021-07-30 14:00 6.87 ug/m3 79.22 ug/m3 15.49 ug/m3 35.15 C 22.92 % 1,000.64 mbar 2.27 m/s 297.35 Deg 1.64 ug/m3
2021-07-30 13:00 4.83 ug/m3 83.06 ug/m3 15.81 ug/m3 34.8 C 25.95 % 1,000.95 mbar 1.8 m/s 308.6 Deg 0.95 ug/m3
2021-07-30 12:00 5.08 ug/m3 86.2 ug/m3 15.6 ug/m3 35.09 C 23.37 % 1,001.27 mbar 1.81 m/s 309.76 Deg 0.7 ug/m3
2021-07-30 11:00 4.93 ug/m3 85.83 ug/m3 16.1 ug/m3 35.71 C 18.69 % 1,001.44 mbar 1.67 m/s 306.49 Deg 0.68 ug/m3
2021-07-30 10:00 5.33 ug/m3 87.56 ug/m3 16.91 ug/m3 35.34 C 18.16 % 1,001.74 mbar 1.52 m/s 310.85 Deg 0.63 ug/m3
2021-07-30 09:00 11.45 ug/m3 81.39 ug/m3 16.78 ug/m3 34.72 C 19.48 % 1,001.53 mbar 1.24 m/s 305.87 Deg 1.78 ug/m3
2021-07-30 08:00 20.9 ug/m3 76.96 ug/m3 16.42 ug/m3 32.68 C 24.69 % 1,001.39 mbar 0.98 m/s 92.64 Deg 2.43 ug/m3
2021-07-30 07:00 28.72 ug/m3 67.63 ug/m3 14.81 ug/m3 29.61 C 33.67 % 1,001.11 mbar 0.52 m/s 92.16 Deg 2.02 ug/m3
2021-07-30 06:00 23.23 ug/m3 72.37 ug/m3 10.61 ug/m3 27.45 C 34.44 % 1,000.90 mbar 0.68 m/s 177.69 Deg 0.49 ug/m3
2021-07-30 05:00 3.39 ug/m3 95.4 ug/m3 10.46 ug/m3 27.81 C 32.92 % 1,000.71 mbar 0.71 m/s 342.26 Deg 0.06 ug/m3
2021-07-30 04:00 3.38 ug/m3 88.32 ug/m3 10.44 ug/m3 27.52 C 32.2 % 1,000.70 mbar 0.53 m/s 324.9 Deg 0.05 ug/m3
2021-07-30 03:00 3.02 ug/m3 71.42 ug/m3 10.69 ug/m3 27.18 C 33.67 % 1,001.01 mbar 0.3 m/s 306.38 Deg 0.07 ug/m3
2021-07-30 02:00 5.38 ug/m3 78.33 ug/m3 11.77 ug/m3 27.75 C 31.67 % 1,001.35 mbar 0.29 m/s 303.6 Deg 0.05 ug/m3

It is to be noted that the data is provisional and subject to quality assurance procedures. For validated data kindly refer your request to contact.air@era.org.mt